<?xml version="1.0" encoding="UTF-8" standalone="no" ?>
<gpx xmlns="http://www.topografix.com/GPX/1/1" creator="www.plotaroute.com" version="1.1"  xmlns:xsi="http://www.w3.org/2001/XMLSchema-instance" xsi:schemaLocation="http://www.topografix.com/GPX/1/1 http://www.topografix.com/GPX/1/1/gpx.xsd">
<metadata>
<desc>Route created on plotaroute.com</desc>
</metadata>
<trk>
<name>Unnamed Route</name>
<trkseg>
<trkpt lat="53.560448" lon="9.975476">
<ele>16</ele>
<time>2026-04-20T00:00:00Z</time></trkpt>
<trkpt lat="53.559683" lon="9.975469">
<ele>16</ele>
<time>2026-04-20T00:01:16Z</time></trkpt>
<trkpt lat="53.55886" lon="9.975496">
<ele>17</ele>
<time>2026-04-20T00:02:45Z</time></trkpt>
<trkpt lat="53.558743" lon="9.975519">
<ele>18</ele>
<time>2026-04-20T00:02:58Z</time></trkpt>
<trkpt lat="53.558538" lon="9.975652">
<ele>18</ele>
<time>2026-04-20T00:03:22Z</time></trkpt>
<trkpt lat="53.557703" lon="9.976605">
<ele>19</ele>
<time>2026-04-20T00:05:12Z</time></trkpt>
<trkpt lat="53.557606" lon="9.976741">
<ele>19</ele>
<time>2026-04-20T00:05:25Z</time></trkpt>
<trkpt lat="53.557441" lon="9.97653">
<ele>19</ele>
<time>2026-04-20T00:05:48Z</time></trkpt>
<trkpt lat="53.557276" lon="9.976388">
<ele>20</ele>
<time>2026-04-20T00:06:08Z</time></trkpt>
<trkpt lat="53.556507" lon="9.975396">
<ele>21</ele>
<time>2026-04-20T00:07:54Z</time></trkpt>
<trkpt lat="53.556386" lon="9.975249">
<ele>21</ele>
<time>2026-04-20T00:08:10Z</time></trkpt>
<trkpt lat="53.556121" lon="9.974828">
<ele>21</ele>
<time>2026-04-20T00:08:49Z</time></trkpt>
<trkpt lat="53.555702" lon="9.974352">
<ele>21</ele>
<time>2026-04-20T00:09:39Z</time></trkpt>
<trkpt lat="53.551875" lon="9.970876">
<ele>21</ele>
<time>2026-04-20T00:16:54Z</time></trkpt>
<trkpt lat="53.551339" lon="9.970386">
<ele>21</ele>
<time>2026-04-20T00:17:55Z</time></trkpt>
<trkpt lat="53.550845" lon="9.969977">
<ele>20</ele>
<time>2026-04-20T00:18:49Z</time></trkpt>
<trkpt lat="53.550659" lon="9.969735">
<ele>20</ele>
<time>2026-04-20T00:19:12Z</time></trkpt>
<trkpt lat="53.550209" lon="9.969443">
<ele>21</ele>
<time>2026-04-20T00:19:59Z</time></trkpt>
<trkpt lat="53.550113" lon="9.969421">
<ele>20</ele>
<time>2026-04-20T00:20:09Z</time></trkpt>
<trkpt lat="53.550046" lon="9.96751">
<ele>20</ele>
<time>2026-04-20T00:22:03Z</time></trkpt>
<trkpt lat="53.550008" lon="9.966975">
<ele>19</ele>
<time>2026-04-20T00:22:34Z</time></trkpt>
<trkpt lat="53.549558" lon="9.962414">
<ele>16</ele>
<time>2026-04-20T00:26:58Z</time></trkpt>
<trkpt lat="53.54952" lon="9.96136">
<ele>15</ele>
<time>2026-04-20T00:28:00Z</time></trkpt>
<trkpt lat="53.549565" lon="9.959132">
<ele>13</ele>
<time>2026-04-20T00:30:08Z</time></trkpt>
<trkpt lat="53.54963" lon="9.958307">
<ele>13</ele>
<time>2026-04-20T00:30:57Z</time></trkpt>
<trkpt lat="53.549763" lon="9.956939">
<ele>13</ele>
<time>2026-04-20T00:32:20Z</time></trkpt>
<trkpt lat="53.549792" lon="9.956467">
<ele>13</ele>
<time>2026-04-20T00:32:49Z</time></trkpt>
<trkpt lat="53.549801" lon="9.955761">
<ele>14</ele>
<time>2026-04-20T00:33:34Z</time></trkpt>
<trkpt lat="53.549781" lon="9.955413">
<ele>14</ele>
<time>2026-04-20T00:33:57Z</time></trkpt>
<trkpt lat="53.549711" lon="9.954256">
<ele>16</ele>
<time>2026-04-20T00:35:18Z</time></trkpt>
<trkpt lat="53.549548" lon="9.952308">
<ele>19</ele>
<time>2026-04-20T00:37:35Z</time></trkpt>
<trkpt lat="53.549514" lon="9.952024">
<ele>19</ele>
<time>2026-04-20T00:37:55Z</time></trkpt>
<trkpt lat="53.549127" lon="9.949661">
<ele>22</ele>
<time>2026-04-20T00:40:40Z</time></trkpt>
<trkpt lat="53.549066" lon="9.949463">
<ele>22</ele>
<time>2026-04-20T00:40:55Z</time></trkpt>
<trkpt lat="53.54903" lon="9.949259">
<ele>22</ele>
<time>2026-04-20T00:41:10Z</time></trkpt>
<trkpt lat="53.548844" lon="9.948019">
<ele>23</ele>
<time>2026-04-20T00:42:39Z</time></trkpt>
<trkpt lat="53.548811" lon="9.94756">
<ele>24</ele>
<time>2026-04-20T00:43:12Z</time></trkpt>
<trkpt lat="53.548492" lon="9.945288">
<ele>27</ele>
<time>2026-04-20T00:45:48Z</time></trkpt>
<trkpt lat="53.548451" lon="9.944857">
<ele>28</ele>
<time>2026-04-20T00:46:18Z</time></trkpt>
<trkpt lat="53.548006" lon="9.941813">
<ele>31</ele>
<time>2026-04-20T00:49:49Z</time></trkpt>
<trkpt lat="53.547902" lon="9.940971">
<ele>32</ele>
<time>2026-04-20T00:50:44Z</time></trkpt>
<trkpt lat="53.547801" lon="9.939424">
<ele>32</ele>
<time>2026-04-20T00:52:18Z</time></trkpt>
<trkpt lat="53.547768" lon="9.937706">
<ele>32</ele>
<time>2026-04-20T00:54:00Z</time></trkpt>
<trkpt lat="53.547793" lon="9.937135">
<ele>32</ele>
<time>2026-04-20T00:54:34Z</time></trkpt>
<trkpt lat="53.5478152" lon="9.9364355">
<ele>32</ele>
<time>2026-04-20T00:55:16Z</time></trkpt>
<trkpt lat="53.547744" lon="9.935444">
<ele>32</ele>
<time>2026-04-20T00:56:13Z</time></trkpt>
<trkpt lat="53.5477455" lon="9.9346285">
<ele>31</ele>
<time>2026-04-20T00:57:01Z</time></trkpt>
<trkpt lat="53.547754" lon="9.934152">
<ele>31</ele>
<time>2026-04-20T00:57:30Z</time></trkpt>
<trkpt lat="53.547905" lon="9.933164">
<ele>30</ele>
<time>2026-04-20T00:58:29Z</time></trkpt>
<trkpt lat="53.547929" lon="9.932873">
<ele>30</ele>
<time>2026-04-20T00:58:46Z</time></trkpt>
<trkpt lat="53.547932" lon="9.932568">
<ele>30</ele>
<time>2026-04-20T00:59:04Z</time></trkpt>
<trkpt lat="53.547905" lon="9.932484">
<ele>30</ele>
<time>2026-04-20T00:59:09Z</time></trkpt>
<trkpt lat="53.547886" lon="9.932258">
<ele>30</ele>
<time>2026-04-20T00:59:23Z</time></trkpt>
<trkpt lat="53.547908" lon="9.932055">
<ele>30</ele>
<time>2026-04-20T00:59:35Z</time></trkpt>
<trkpt lat="53.54769" lon="9.929188">
<ele>30</ele>
<time>2026-04-20T01:02:31Z</time></trkpt>
<trkpt lat="53.547697" lon="9.929008">
<ele>30</ele>
<time>2026-04-20T01:02:42Z</time></trkpt>
<trkpt lat="53.547791" lon="9.928227">
<ele>31</ele>
<time>2026-04-20T01:03:32Z</time></trkpt>
<trkpt lat="53.547812" lon="9.927826">
<ele>31</ele>
<time>2026-04-20T01:03:56Z</time></trkpt>
<trkpt lat="53.547802" lon="9.927469">
<ele>31</ele>
<time>2026-04-20T01:04:17Z</time></trkpt>
<trkpt lat="53.547706" lon="9.926298">
<ele>31</ele>
<time>2026-04-20T01:05:27Z</time></trkpt>
<trkpt lat="53.547695" lon="9.925546">
<ele>32</ele>
<time>2026-04-20T01:06:14Z</time></trkpt>
<trkpt lat="53.547869" lon="9.924294">
<ele>32</ele>
<time>2026-04-20T01:07:36Z</time></trkpt>
<trkpt lat="53.548365" lon="9.921096">
<ele>34</ele>
<time>2026-04-20T01:11:08Z</time></trkpt>
<trkpt lat="53.548445" lon="9.920184">
<ele>35</ele>
<time>2026-04-20T01:12:10Z</time></trkpt>
<trkpt lat="53.548456" lon="9.9199">
<ele>35</ele>
<time>2026-04-20T01:12:28Z</time></trkpt>
<trkpt lat="53.548444" lon="9.919347">
<ele>36</ele>
<time>2026-04-20T01:13:04Z</time></trkpt>
<trkpt lat="53.548437" lon="9.919346">
<ele>36</ele>
<time>2026-04-20T01:13:05Z</time></trkpt>
<trkpt lat="53.548444" lon="9.919347">
<ele>36</ele>
<time>2026-04-20T01:13:06Z</time></trkpt>
<trkpt lat="53.548434" lon="9.919166">
<ele>36</ele>
<time>2026-04-20T01:13:18Z</time></trkpt>
<trkpt lat="53.548451" lon="9.917664">
<ele>37</ele>
<time>2026-04-20T01:14:55Z</time></trkpt>
<trkpt lat="53.548709" lon="9.915828">
<ele>39</ele>
<time>2026-04-20T01:17:00Z</time></trkpt>
<trkpt lat="53.548952" lon="9.913311">
<ele>39</ele>
<time>2026-04-20T01:19:36Z</time></trkpt>
<trkpt lat="53.549187" lon="9.911389">
<ele>37</ele>
<time>2026-04-20T01:21:26Z</time></trkpt>
<trkpt lat="53.549213" lon="9.910938">
<ele>36</ele>
<time>2026-04-20T01:21:52Z</time></trkpt>
<trkpt lat="53.54922" lon="9.910097">
<ele>35</ele>
<time>2026-04-20T01:22:40Z</time></trkpt>
<trkpt lat="53.549658" lon="9.903156">
<ele>32</ele>
<time>2026-04-20T01:29:25Z</time></trkpt>
<trkpt lat="53.549727" lon="9.90195">
<ele>31</ele>
<time>2026-04-20T01:30:37Z</time></trkpt>
<trkpt lat="53.549743" lon="9.901419">
<ele>31</ele>
<time>2026-04-20T01:31:08Z</time></trkpt>
<trkpt lat="53.549734" lon="9.900742">
<ele>30</ele>
<time>2026-04-20T01:31:47Z</time></trkpt>
<trkpt lat="53.549681" lon="9.899584">
<ele>30</ele>
<time>2026-04-20T01:32:55Z</time></trkpt>
<trkpt lat="53.549577" lon="9.898495">
<ele>29</ele>
<time>2026-04-20T01:34:00Z</time></trkpt>
<trkpt lat="53.549496" lon="9.898018">
<ele>29</ele>
<time>2026-04-20T01:34:28Z</time></trkpt>
<trkpt lat="53.549479" lon="9.897898">
<ele>29</ele>
<time>2026-04-20T01:34:35Z</time></trkpt>
<trkpt lat="53.549375" lon="9.897922">
<ele>29</ele>
<time>2026-04-20T01:34:46Z</time></trkpt>
<trkpt lat="53.549321" lon="9.897907">
<ele>29</ele>
<time>2026-04-20T01:34:51Z</time></trkpt>
<trkpt lat="53.548829" lon="9.897459">
<ele>30</ele>
<time>2026-04-20T01:35:57Z</time></trkpt>
<trkpt lat="53.54792" lon="9.89679">
<ele>32</ele>
<time>2026-04-20T01:37:47Z</time></trkpt>
<trkpt lat="53.546241" lon="9.896468">
<ele>33</ele>
<time>2026-04-20T01:40:44Z</time></trkpt>
<trkpt lat="53.546084" lon="9.897785">
<ele>34</ele>
<time>2026-04-20T01:42:11Z</time></trkpt>
<trkpt lat="53.545816" lon="9.900682">
<ele>35</ele>
<time>2026-04-20T01:45:11Z</time></trkpt>
<trkpt lat="53.545739" lon="9.901206">
<ele>34</ele>
<time>2026-04-20T01:45:42Z</time></trkpt>
<trkpt lat="53.545599" lon="9.901781">
<ele>34</ele>
<time>2026-04-20T01:46:18Z</time></trkpt>
<trkpt lat="53.54548" lon="9.902357">
<ele>32</ele>
<time>2026-04-20T01:46:51Z</time></trkpt>
<trkpt lat="53.545435" lon="9.902854">
<ele>31</ele>
<time>2026-04-20T01:47:18Z</time></trkpt>
<trkpt lat="53.545416" lon="9.903706">
<ele>28</ele>
<time>2026-04-20T01:48:07Z</time></trkpt>
<trkpt lat="53.545429" lon="9.904126">
<ele>28</ele>
<time>2026-04-20T01:48:31Z</time></trkpt>
<trkpt lat="53.545492" lon="9.904736">
<ele>31</ele>
<time>2026-04-20T01:49:16Z</time></trkpt>
<trkpt lat="53.545725" lon="9.906652">
<ele>35</ele>
<time>2026-04-20T01:51:39Z</time></trkpt>
<trkpt lat="53.545787" lon="9.907276">
<ele>36</ele>
<time>2026-04-20T01:52:19Z</time></trkpt>
<trkpt lat="53.545857" lon="9.908428">
<ele>37</ele>
<time>2026-04-20T01:53:40Z</time></trkpt>
<trkpt lat="53.54611" lon="9.911326">
<ele>37</ele>
<time>2026-04-20T01:56:38Z</time></trkpt>
<trkpt lat="53.546131" lon="9.911828">
<ele>37</ele>
<time>2026-04-20T01:57:08Z</time></trkpt>
<trkpt lat="53.546117" lon="9.913915">
<ele>36</ele>
<time>2026-04-20T01:59:10Z</time></trkpt>
<trkpt lat="53.546027" lon="9.91589">
<ele>34</ele>
<time>2026-04-20T02:01:01Z</time></trkpt>
<trkpt lat="53.545972" lon="9.916771">
<ele>33</ele>
<time>2026-04-20T02:01:54Z</time></trkpt>
<trkpt lat="53.545906" lon="9.917678">
<ele>33</ele>
<time>2026-04-20T02:02:53Z</time></trkpt>
<trkpt lat="53.54588" lon="9.918102">
<ele>34</ele>
<time>2026-04-20T02:03:21Z</time></trkpt>
<trkpt lat="53.545879" lon="9.919021">
<ele>35</ele>
<time>2026-04-20T02:04:20Z</time></trkpt>
<trkpt lat="53.545922" lon="9.919635">
<ele>35</ele>
<time>2026-04-20T02:05:00Z</time></trkpt>
<trkpt lat="53.546092" lon="9.920873">
<ele>36</ele>
<time>2026-04-20T02:06:21Z</time></trkpt>
<trkpt lat="53.54614" lon="9.921415">
<ele>36</ele>
<time>2026-04-20T02:06:53Z</time></trkpt>
<trkpt lat="53.54616" lon="9.922015">
<ele>36</ele>
<time>2026-04-20T02:07:29Z</time></trkpt>
<trkpt lat="53.546214" lon="9.922895">
<ele>35</ele>
<time>2026-04-20T02:08:20Z</time></trkpt>
<trkpt lat="53.546427" lon="9.924471">
<ele>34</ele>
<time>2026-04-20T02:09:53Z</time></trkpt>
<trkpt lat="53.546456" lon="9.925707">
<ele>33</ele>
<time>2026-04-20T02:11:04Z</time></trkpt>
<trkpt lat="53.546452" lon="9.926196">
<ele>33</ele>
<time>2026-04-20T02:11:33Z</time></trkpt>
<trkpt lat="53.546454" lon="9.926774">
<ele>33</ele>
<time>2026-04-20T02:12:07Z</time></trkpt>
<trkpt lat="53.546485" lon="9.927598">
<ele>33</ele>
<time>2026-04-20T02:12:56Z</time></trkpt>
<trkpt lat="53.546375" lon="9.929165">
<ele>33</ele>
<time>2026-04-20T02:14:29Z</time></trkpt>
<trkpt lat="53.546593" lon="9.931375">
<ele>32</ele>
<time>2026-04-20T02:16:41Z</time></trkpt>
<trkpt lat="53.546596" lon="9.932036">
<ele>32</ele>
<time>2026-04-20T02:17:20Z</time></trkpt>
<trkpt lat="53.546409" lon="9.934233">
<ele>32</ele>
<time>2026-04-20T02:19:33Z</time></trkpt>
<trkpt lat="53.5462459" lon="9.9349505">
<ele>32</ele>
<time>2026-04-20T02:20:22Z</time></trkpt>
<trkpt lat="53.5461913" lon="9.9363293">
<ele>33</ele>
<time>2026-04-20T02:21:47Z</time></trkpt>
<trkpt lat="53.546107" lon="9.944622">
<ele>29</ele>
<time>2026-04-20T02:29:48Z</time></trkpt>
<trkpt lat="53.546165" lon="9.945626">
<ele>27</ele>
<time>2026-04-20T02:30:45Z</time></trkpt>
<trkpt lat="53.546129" lon="9.947627">
<ele>22</ele>
<time>2026-04-20T02:32:31Z</time></trkpt>
<trkpt lat="53.546154" lon="9.948442">
<ele>20</ele>
<time>2026-04-20T02:33:16Z</time></trkpt>
<trkpt lat="53.546226" lon="9.949562">
<ele>18</ele>
<time>2026-04-20T02:34:17Z</time></trkpt>
<trkpt lat="53.546344" lon="9.950819">
<ele>16</ele>
<time>2026-04-20T02:35:26Z</time></trkpt>
<trkpt lat="53.546461" lon="9.951872">
<ele>12</ele>
<time>2026-04-20T02:36:21Z</time></trkpt>
<trkpt lat="53.546471" lon="9.952129">
<ele>12</ele>
<time>2026-04-20T02:36:34Z</time></trkpt>
<trkpt lat="53.546456" lon="9.95248">
<ele>10</ele>
<time>2026-04-20T02:36:54Z</time></trkpt>
<trkpt lat="53.546409" lon="9.952773">
<ele>9</ele>
<time>2026-04-20T02:37:10Z</time></trkpt>
<trkpt lat="53.546346" lon="9.952975">
<ele>9</ele>
<time>2026-04-20T02:37:22Z</time></trkpt>
<trkpt lat="53.54625" lon="9.95314">
<ele>8</ele>
<time>2026-04-20T02:37:34Z</time></trkpt>
<trkpt lat="53.546198" lon="9.953291">
<ele>7</ele>
<time>2026-04-20T02:37:43Z</time></trkpt>
<trkpt lat="53.545798" lon="9.953724">
<ele>6</ele>
<time>2026-04-20T02:38:25Z</time></trkpt>
<trkpt lat="53.545688" lon="9.953928">
<ele>5</ele>
<time>2026-04-20T02:38:40Z</time></trkpt>
<trkpt lat="53.545631" lon="9.954173">
<ele>5</ele>
<time>2026-04-20T02:38:56Z</time></trkpt>
<trkpt lat="53.54561" lon="9.95454">
<ele>5</ele>
<time>2026-04-20T02:39:18Z</time></trkpt>
<trkpt lat="53.545616" lon="9.954759">
<ele>6</ele>
<time>2026-04-20T02:39:31Z</time></trkpt>
<trkpt lat="53.545671" lon="9.955242">
<ele>5</ele>
<time>2026-04-20T02:40:00Z</time></trkpt>
<trkpt lat="53.545772" lon="9.95592">
<ele>5</ele>
<time>2026-04-20T02:40:42Z</time></trkpt>
<trkpt lat="53.546267" lon="9.959974">
<ele>7</ele>
<time>2026-04-20T02:45:02Z</time></trkpt>
<trkpt lat="53.546385" lon="9.961141">
<ele>7</ele>
<time>2026-04-20T02:46:16Z</time></trkpt>
<trkpt lat="53.546456" lon="9.962189">
<ele>9</ele>
<time>2026-04-20T02:47:26Z</time></trkpt>
<trkpt lat="53.54648" lon="9.963025">
<ele>9</ele>
<time>2026-04-20T02:48:24Z</time></trkpt>
<trkpt lat="53.546467" lon="9.964317">
<ele>12</ele>
<time>2026-04-20T02:49:55Z</time></trkpt>
<trkpt lat="53.546442" lon="9.964843">
<ele>12</ele>
<time>2026-04-20T02:50:28Z</time></trkpt>
<trkpt lat="53.546387" lon="9.965476">
<ele>12</ele>
<time>2026-04-20T02:51:06Z</time></trkpt>
<trkpt lat="53.546101" lon="9.968338">
<ele>7</ele>
<time>2026-04-20T02:53:48Z</time></trkpt>
<trkpt lat="53.546056" lon="9.969132">
<ele>7</ele>
<time>2026-04-20T02:54:33Z</time></trkpt>
<trkpt lat="53.545973" lon="9.969344">
<ele>6</ele>
<time>2026-04-20T02:54:48Z</time></trkpt>
<trkpt lat="53.545969" lon="9.969342">
<ele>6</ele>
<time>2026-04-20T02:54:48Z</time></trkpt>
<trkpt lat="53.5459304" lon="9.9695671">
<ele>6</ele>
<time>2026-04-20T02:55:02Z</time></trkpt>
<trkpt lat="53.5458156" lon="9.9700499">
<ele>6</ele>
<time>2026-04-20T02:55:32Z</time></trkpt>
<trkpt lat="53.5455319" lon="9.9710637">
<ele>6</ele>
<time>2026-04-20T02:56:39Z</time></trkpt>
<trkpt lat="53.54554" lon="9.97107">
<ele>6</ele>
<time>2026-04-20T02:56:39Z</time></trkpt>
<trkpt lat="53.545468" lon="9.971338">
<ele>5</ele>
<time>2026-04-20T02:56:56Z</time></trkpt>
<trkpt lat="53.545411" lon="9.971656">
<ele>6</ele>
<time>2026-04-20T02:57:16Z</time></trkpt>
<trkpt lat="53.545352" lon="9.972568">
<ele>5</ele>
<time>2026-04-20T02:58:08Z</time></trkpt>
<trkpt lat="53.54528" lon="9.972996">
<ele>5</ele>
<time>2026-04-20T02:58:34Z</time></trkpt>
<trkpt lat="53.545116" lon="9.973533">
<ele>4</ele>
<time>2026-04-20T02:59:09Z</time></trkpt>
<trkpt lat="53.544636" lon="9.975023">
<ele>3</ele>
<time>2026-04-20T03:00:49Z</time></trkpt>
<trkpt lat="53.54445" lon="9.975584">
<ele>3</ele>
<time>2026-04-20T03:01:26Z</time></trkpt>
<trkpt lat="53.544376" lon="9.975749">
<ele>3</ele>
<time>2026-04-20T03:01:38Z</time></trkpt>
<trkpt lat="53.544154" lon="9.976124">
<ele>3</ele>
<time>2026-04-20T03:02:10Z</time></trkpt>
<trkpt lat="53.544038" lon="9.976464">
<ele>3</ele>
<time>2026-04-20T03:02:35Z</time></trkpt>
<trkpt lat="53.544" lon="9.976699">
<ele>3</ele>
<time>2026-04-20T03:02:51Z</time></trkpt>
<trkpt lat="53.543994" lon="9.97692">
<ele>3</ele>
<time>2026-04-20T03:03:05Z</time></trkpt>
<trkpt lat="53.544043" lon="9.977301">
<ele>4</ele>
<time>2026-04-20T03:03:30Z</time></trkpt>
<trkpt lat="53.544082" lon="9.978291">
<ele>4</ele>
<time>2026-04-20T03:04:29Z</time></trkpt>
<trkpt lat="53.544071" lon="9.979163">
<ele>3</ele>
<time>2026-04-20T03:05:21Z</time></trkpt>
<trkpt lat="53.544108" lon="9.979698">
<ele>4</ele>
<time>2026-04-20T03:05:53Z</time></trkpt>
<trkpt lat="53.544116" lon="9.980045">
<ele>4</ele>
<time>2026-04-20T03:06:14Z</time></trkpt>
<trkpt lat="53.544115" lon="9.980162">
<ele>4</ele>
<time>2026-04-20T03:06:22Z</time></trkpt>
<trkpt lat="53.5440753" lon="9.9810737">
<ele>5</ele>
<time>2026-04-20T03:07:21Z</time></trkpt>
<trkpt lat="53.5440976" lon="9.9820018">
<ele>6</ele>
<time>2026-04-20T03:08:17Z</time></trkpt>
<trkpt lat="53.544103" lon="9.982">
<ele>6</ele>
<time>2026-04-20T03:08:18Z</time></trkpt>
<trkpt lat="53.544127" lon="9.982209">
<ele>6</ele>
<time>2026-04-20T03:08:30Z</time></trkpt>
<trkpt lat="53.544183" lon="9.982426">
<ele>5</ele>
<time>2026-04-20T03:08:44Z</time></trkpt>
<trkpt lat="53.544423" lon="9.983103">
<ele>4</ele>
<time>2026-04-20T03:09:28Z</time></trkpt>
<trkpt lat="53.544777" lon="9.984017">
<ele>2</ele>
<time>2026-04-20T03:10:34Z</time></trkpt>
<trkpt lat="53.544841" lon="9.984272">
<ele>4</ele>
<time>2026-04-20T03:10:55Z</time></trkpt>
<trkpt lat="53.544944" lon="9.98472">
<ele>4</ele>
<time>2026-04-20T03:11:31Z</time></trkpt>
<trkpt lat="53.544998" lon="9.985181">
<ele>5</ele>
<time>2026-04-20T03:12:03Z</time></trkpt>
<trkpt lat="53.544989" lon="9.985646">
<ele>5</ele>
<time>2026-04-20T03:12:30Z</time></trkpt>
<trkpt lat="53.544938" lon="9.986219">
<ele>5</ele>
<time>2026-04-20T03:13:05Z</time></trkpt>
<trkpt lat="53.544914" lon="9.986627">
<ele>4</ele>
<time>2026-04-20T03:13:29Z</time></trkpt>
<trkpt lat="53.544933" lon="9.986807">
<ele>4</ele>
<time>2026-04-20T03:13:39Z</time></trkpt>
<trkpt lat="53.544879" lon="9.987492">
<ele>4</ele>
<time>2026-04-20T03:14:19Z</time></trkpt>
<trkpt lat="53.544836" lon="9.988198">
<ele>4</ele>
<time>2026-04-20T03:15:04Z</time></trkpt>
<trkpt lat="53.54479" lon="9.988581">
<ele>4</ele>
<time>2026-04-20T03:15:29Z</time></trkpt>
<trkpt lat="53.54474" lon="9.989642">
<ele>5</ele>
<time>2026-04-20T03:16:34Z</time></trkpt>
<trkpt lat="53.544702" lon="9.99093">
<ele>5</ele>
<time>2026-04-20T03:17:51Z</time></trkpt>
<trkpt lat="53.544717" lon="9.991397">
<ele>5</ele>
<time>2026-04-20T03:18:19Z</time></trkpt>
<trkpt lat="53.544701" lon="9.99232">
<ele>5</ele>
<time>2026-04-20T03:19:14Z</time></trkpt>
<trkpt lat="53.544753" lon="9.992654">
<ele>5</ele>
<time>2026-04-20T03:19:34Z</time></trkpt>
<trkpt lat="53.545301" lon="9.993978">
<ele>4</ele>
<time>2026-04-20T03:21:08Z</time></trkpt>
<trkpt lat="53.545519" lon="9.994663">
<ele>4</ele>
<time>2026-04-20T03:21:54Z</time></trkpt>
<trkpt lat="53.545942" lon="9.995856">
<ele>3</ele>
<time>2026-04-20T03:23:20Z</time></trkpt>
<trkpt lat="53.546102" lon="9.996217">
<ele>5</ele>
<time>2026-04-20T03:23:49Z</time></trkpt>
<trkpt lat="53.546381" lon="9.997034">
<ele>5</ele>
<time>2026-04-20T03:24:50Z</time></trkpt>
<trkpt lat="53.546553" lon="9.99745">
<ele>6</ele>
<time>2026-04-20T03:25:23Z</time></trkpt>
<trkpt lat="53.546709" lon="9.997901">
<ele>6</ele>
<time>2026-04-20T03:25:54Z</time></trkpt>
<trkpt lat="53.546773" lon="9.99822">
<ele>5</ele>
<time>2026-04-20T03:26:13Z</time></trkpt>
<trkpt lat="53.54686" lon="9.999069">
<ele>5</ele>
<time>2026-04-20T03:27:03Z</time></trkpt>
<trkpt lat="53.546928" lon="9.999417">
<ele>5</ele>
<time>2026-04-20T03:27:25Z</time></trkpt>
<trkpt lat="53.547082" lon="9.999946">
<ele>5</ele>
<time>2026-04-20T03:28:00Z</time></trkpt>
<trkpt lat="53.5471256" lon="10.0001872">
<ele>5</ele>
<time>2026-04-20T03:28:15Z</time></trkpt>
<trkpt lat="53.5472691" lon="10.0006163">
<ele>5</ele>
<time>2026-04-20T03:28:47Z</time></trkpt>
<trkpt lat="53.5473902" lon="10.001024">
<ele>6</ele>
<time>2026-04-20T03:29:16Z</time></trkpt>
<trkpt lat="53.547394" lon="10.001027">
<ele>6</ele>
<time>2026-04-20T03:29:17Z</time></trkpt>
<trkpt lat="53.547357" lon="10.001373">
<ele>6</ele>
<time>2026-04-20T03:29:40Z</time></trkpt>
<trkpt lat="53.547328" lon="10.002139">
<ele>6</ele>
<time>2026-04-20T03:30:25Z</time></trkpt>
<trkpt lat="53.547286" lon="10.002441">
<ele>6</ele>
<time>2026-04-20T03:30:44Z</time></trkpt>
<trkpt lat="53.547262" lon="10.002966">
<ele>6</ele>
<time>2026-04-20T03:31:15Z</time></trkpt>
<trkpt lat="53.547286" lon="10.003306">
<ele>6</ele>
<time>2026-04-20T03:31:35Z</time></trkpt>
<trkpt lat="53.547412" lon="10.004233">
<ele>5</ele>
<time>2026-04-20T03:32:32Z</time></trkpt>
<trkpt lat="53.5475241" lon="10.0050259">
<ele>7</ele>
<time>2026-04-20T03:33:33Z</time></trkpt>
<trkpt lat="53.5477025" lon="10.0050741">
<ele>8</ele>
<time>2026-04-20T03:33:56Z</time></trkpt>
<trkpt lat="53.5479097" lon="10.0051546">
<ele>8</ele>
<time>2026-04-20T03:34:18Z</time></trkpt>
<trkpt lat="53.5481456" lon="10.0054926">
<ele>7</ele>
<time>2026-04-20T03:34:48Z</time></trkpt>
<trkpt lat="53.548391" lon="10.0058627">
<ele>7</ele>
<time>2026-04-20T03:35:20Z</time></trkpt>
<trkpt lat="53.5488181" lon="10.0060558">
<ele>9</ele>
<time>2026-04-20T03:36:12Z</time></trkpt>
<trkpt lat="53.5493185" lon="10.0061685">
<ele>10</ele>
<time>2026-04-20T03:37:14Z</time></trkpt>
<trkpt lat="53.5500069" lon="10.0062168">
<ele>14</ele>
<time>2026-04-20T03:38:54Z</time></trkpt>
<trkpt lat="53.5503893" lon="10.006206">
<ele>15</ele>
<time>2026-04-20T03:39:35Z</time></trkpt>
<trkpt lat="53.550928" lon="10.0060827">
<ele>15</ele>
<time>2026-04-20T03:40:33Z</time></trkpt>
<trkpt lat="53.5519765" lon="10.0057447">
<ele>15</ele>
<time>2026-04-20T03:42:19Z</time></trkpt>
<trkpt lat="53.5524577" lon="10.005573">
<ele>14</ele>
<time>2026-04-20T03:43:07Z</time></trkpt>
<trkpt lat="53.5529867" lon="10.0051278">
<ele>14</ele>
<time>2026-04-20T03:44:04Z</time></trkpt>
<trkpt lat="53.5534711" lon="10.0045055">
<ele>12</ele>
<time>2026-04-20T03:45:02Z</time></trkpt>
<trkpt lat="53.55422" lon="10.0033629">
<ele>9</ele>
<time>2026-04-20T03:46:35Z</time></trkpt>
<trkpt lat="53.5548" lon="10.0023973">
<ele>6</ele>
<time>2026-04-20T03:47:51Z</time></trkpt>
<trkpt lat="53.5549657" lon="10.0019252">
<ele>6</ele>
<time>2026-04-20T03:48:23Z</time></trkpt>
<trkpt lat="53.5554087" lon="10.0010508">
<ele>6</ele>
<time>2026-04-20T03:49:31Z</time></trkpt>
<trkpt lat="53.5555489" lon="10.000788">
<ele>6</ele>
<time>2026-04-20T03:49:51Z</time></trkpt>
<trkpt lat="53.555345" lon="10.0004822">
<ele>6</ele>
<time>2026-04-20T03:50:18Z</time></trkpt>
<trkpt lat="53.5549944" lon="9.9997097">
<ele>5</ele>
<time>2026-04-20T03:51:14Z</time></trkpt>
<trkpt lat="53.554984" lon="9.99971">
<ele>5</ele>
<time>2026-04-20T03:51:15Z</time></trkpt>
<trkpt lat="53.554984" lon="9.999666">
<ele>5</ele>
<time>2026-04-20T03:51:15Z</time></trkpt>
<trkpt lat="53.553653" lon="9.997511">
<ele>4</ele>
<time>2026-04-20T03:54:18Z</time></trkpt>
<trkpt lat="53.552279" lon="9.995257">
<ele>5</ele>
<time>2026-04-20T03:57:37Z</time></trkpt>
<trkpt lat="53.552163" lon="9.995115">
<ele>5</ele>
<time>2026-04-20T03:57:51Z</time></trkpt>
<trkpt lat="53.552093" lon="9.994985">
<ele>5</ele>
<time>2026-04-20T03:58:01Z</time></trkpt>
<trkpt lat="53.552033" lon="9.994678">
<ele>6</ele>
<time>2026-04-20T03:58:19Z</time></trkpt>
<trkpt lat="53.552027" lon="9.994605">
<ele>6</ele>
<time>2026-04-20T03:58:24Z</time></trkpt>
<trkpt lat="53.552115" lon="9.994485">
<ele>5</ele>
<time>2026-04-20T03:58:35Z</time></trkpt>
<trkpt lat="53.552283" lon="9.994086">
<ele>3</ele>
<time>2026-04-20T03:59:05Z</time></trkpt>
<trkpt lat="53.552964" lon="9.993028">
<ele>6</ele>
<time>2026-04-20T04:00:49Z</time></trkpt>
<trkpt lat="53.554275" lon="9.991011">
<ele>5</ele>
<time>2026-04-20T04:03:45Z</time></trkpt>
<trkpt lat="53.554416" lon="9.990734">
<ele>5</ele>
<time>2026-04-20T04:04:07Z</time></trkpt>
<trkpt lat="53.554514" lon="9.990806">
<ele>5</ele>
<time>2026-04-20T04:04:18Z</time></trkpt>
<trkpt lat="53.554509" lon="9.990818">
<ele>5</ele>
<time>2026-04-20T04:04:18Z</time></trkpt>
<trkpt lat="53.554514" lon="9.990806">
<ele>5</ele>
<time>2026-04-20T04:04:19Z</time></trkpt>
<trkpt lat="53.554928" lon="9.991207">
<ele>5</ele>
<time>2026-04-20T04:05:06Z</time></trkpt>
<trkpt lat="53.555878" lon="9.992102">
<ele>4</ele>
<time>2026-04-20T04:06:59Z</time></trkpt>
<trkpt lat="53.556097" lon="9.992277">
<ele>5</ele>
<time>2026-04-20T04:07:25Z</time></trkpt>
<trkpt lat="53.557155" lon="9.992896">
<ele>5</ele>
<time>2026-04-20T04:09:17Z</time></trkpt>
<trkpt lat="53.55738" lon="9.992994">
<ele>5</ele>
<time>2026-04-20T04:09:40Z</time></trkpt>
<trkpt lat="53.557376" lon="9.99301">
<ele>5</ele>
<time>2026-04-20T04:09:41Z</time></trkpt>
<trkpt lat="53.5574864" lon="9.9932402">
<ele>5</ele>
<time>2026-04-20T04:09:59Z</time></trkpt>
<trkpt lat="53.5575692" lon="9.993428">
<ele>5</ele>
<time>2026-04-20T04:10:13Z</time></trkpt>
<trkpt lat="53.5576011" lon="9.9935567">
<ele>6</ele>
<time>2026-04-20T04:10:21Z</time></trkpt>
<trkpt lat="53.5576935" lon="9.9935836">
<ele>5</ele>
<time>2026-04-20T04:10:30Z</time></trkpt>
<trkpt lat="53.5578401" lon="9.9938571">
<ele>5</ele>
<time>2026-04-20T04:10:52Z</time></trkpt>
<trkpt lat="53.5584328" lon="9.9941897">
<ele>5</ele>
<time>2026-04-20T04:11:58Z</time></trkpt>
<trkpt lat="53.5585379" lon="9.9942166">
<ele>5</ele>
<time>2026-04-20T04:12:10Z</time></trkpt>
<trkpt lat="53.5584455" lon="9.9952787">
<ele>7</ele>
<time>2026-04-20T04:13:19Z</time></trkpt>
<trkpt lat="53.558451" lon="9.995282">
<ele>7</ele>
<time>2026-04-20T04:13:20Z</time></trkpt>
<trkpt lat="53.557483" lon="9.99889">
<ele>8</ele>
<time>2026-04-20T04:17:19Z</time></trkpt>
<trkpt lat="53.55736" lon="9.999465">
<ele>7</ele>
<time>2026-04-20T04:18:01Z</time></trkpt>
<trkpt lat="53.557306" lon="9.999811">
<ele>7</ele>
<time>2026-04-20T04:18:26Z</time></trkpt>
<trkpt lat="53.557283" lon="10.000461">
<ele>6</ele>
<time>2026-04-20T04:19:03Z</time></trkpt>
<trkpt lat="53.557287" lon="10.001087">
<ele>6</ele>
<time>2026-04-20T04:19:39Z</time></trkpt>
<trkpt lat="53.557334" lon="10.001515">
<ele>5</ele>
<time>2026-04-20T04:20:04Z</time></trkpt>
<trkpt lat="53.55734" lon="10.001796">
<ele>5</ele>
<time>2026-04-20T04:20:21Z</time></trkpt>
<trkpt lat="53.557353" lon="10.00294">
<ele>5</ele>
<time>2026-04-20T04:21:27Z</time></trkpt>
<trkpt lat="53.557363" lon="10.003448">
<ele>4</ele>
<time>2026-04-20T04:21:58Z</time></trkpt>
<trkpt lat="53.557383" lon="10.003646">
<ele>4</ele>
<time>2026-04-20T04:22:10Z</time></trkpt>
<trkpt lat="53.557422" lon="10.003834">
<ele>5</ele>
<time>2026-04-20T04:22:21Z</time></trkpt>
<trkpt lat="53.557641" lon="10.004627">
<ele>4</ele>
<time>2026-04-20T04:23:12Z</time></trkpt>
<trkpt lat="53.557908" lon="10.005292">
<ele>4</ele>
<time>2026-04-20T04:23:59Z</time></trkpt>
<trkpt lat="53.558448" lon="10.006894">
<ele>5</ele>
<time>2026-04-20T04:25:48Z</time></trkpt>
<trkpt lat="53.55876" lon="10.007708">
<ele>4</ele>
<time>2026-04-20T04:26:46Z</time></trkpt>
<trkpt lat="53.559229" lon="10.008848">
<ele>4</ele>
<time>2026-04-20T04:28:08Z</time></trkpt>
<trkpt lat="53.559552" lon="10.009497">
<ele>4</ele>
<time>2026-04-20T04:28:58Z</time></trkpt>
<trkpt lat="53.559703" lon="10.009843">
<ele>4</ele>
<time>2026-04-20T04:29:26Z</time></trkpt>
<trkpt lat="53.559933" lon="10.010509">
<ele>4</ele>
<time>2026-04-20T04:30:15Z</time></trkpt>
<trkpt lat="53.560283" lon="10.011769">
<ele>5</ele>
<time>2026-04-20T04:31:39Z</time></trkpt>
<trkpt lat="53.560481" lon="10.012302">
<ele>4</ele>
<time>2026-04-20T04:32:17Z</time></trkpt>
<trkpt lat="53.560649" lon="10.012651">
<ele>5</ele>
<time>2026-04-20T04:32:43Z</time></trkpt>
<trkpt lat="53.561269" lon="10.01357">
<ele>5</ele>
<time>2026-04-20T04:34:06Z</time></trkpt>
<trkpt lat="53.561689" lon="10.014113">
<ele>5</ele>
<time>2026-04-20T04:35:01Z</time></trkpt>
<trkpt lat="53.562202" lon="10.01473">
<ele>6</ele>
<time>2026-04-20T04:36:09Z</time></trkpt>
<trkpt lat="53.562621" lon="10.015099">
<ele>6</ele>
<time>2026-04-20T04:36:56Z</time></trkpt>
<trkpt lat="53.562741" lon="10.015227">
<ele>7</ele>
<time>2026-04-20T04:37:10Z</time></trkpt>
<trkpt lat="53.562895" lon="10.015484">
<ele>5</ele>
<time>2026-04-20T04:37:32Z</time></trkpt>
<trkpt lat="53.563075" lon="10.015756">
<ele>3</ele>
<time>2026-04-20T04:37:56Z</time></trkpt>
<trkpt lat="53.5634098" lon="10.0162053">
<ele>6</ele>
<time>2026-04-20T04:38:39Z</time></trkpt>
<trkpt lat="53.5636296" lon="10.0164682">
<ele>6</ele>
<time>2026-04-20T04:39:06Z</time></trkpt>
<trkpt lat="53.5639673" lon="10.0167257">
<ele>6</ele>
<time>2026-04-20T04:39:43Z</time></trkpt>
<trkpt lat="53.5643783" lon="10.0168866">
<ele>6</ele>
<time>2026-04-20T04:40:27Z</time></trkpt>
<trkpt lat="53.564732" lon="10.016892">
<ele>6</ele>
<time>2026-04-20T04:41:06Z</time></trkpt>
<trkpt lat="53.5651557" lon="10.0169349">
<ele>6</ele>
<time>2026-04-20T04:41:49Z</time></trkpt>
<trkpt lat="53.5658534" lon="10.0167847">
<ele>6</ele>
<time>2026-04-20T04:42:56Z</time></trkpt>
<trkpt lat="53.565854" lon="10.01679">
<ele>6</ele>
<time>2026-04-20T04:42:56Z</time></trkpt>
<trkpt lat="53.567595" lon="10.016394">
<ele>5</ele>
<time>2026-04-20T04:45:52Z</time></trkpt>
<trkpt lat="53.567662" lon="10.016183">
<ele>5</ele>
<time>2026-04-20T04:46:06Z</time></trkpt>
<trkpt lat="53.568083" lon="10.015687">
<ele>5</ele>
<time>2026-04-20T04:46:57Z</time></trkpt>
<trkpt lat="53.568182" lon="10.015529">
<ele>5</ele>
<time>2026-04-20T04:47:11Z</time></trkpt>
<trkpt lat="53.56834" lon="10.015209">
<ele>5</ele>
<time>2026-04-20T04:47:36Z</time></trkpt>
<trkpt lat="53.569246" lon="10.012721">
<ele>4</ele>
<time>2026-04-20T04:50:27Z</time></trkpt>
<trkpt lat="53.5695" lon="10.011838">
<ele>4</ele>
<time>2026-04-20T04:51:28Z</time></trkpt>
<trkpt lat="53.569816" lon="10.010584">
<ele>4</ele>
<time>2026-04-20T04:52:53Z</time></trkpt>
<trkpt lat="53.569934" lon="10.010218">
<ele>5</ele>
<time>2026-04-20T04:53:18Z</time></trkpt>
<trkpt lat="53.570053" lon="10.010022">
<ele>5</ele>
<time>2026-04-20T04:53:34Z</time></trkpt>
<trkpt lat="53.570231" lon="10.009873">
<ele>5</ele>
<time>2026-04-20T04:53:54Z</time></trkpt>
<trkpt lat="53.574529" lon="10.007514">
<ele>4</ele>
<time>2026-04-20T05:01:28Z</time></trkpt>
<trkpt lat="53.574635" lon="10.007465">
<ele>4</ele>
<time>2026-04-20T05:01:39Z</time></trkpt>
<trkpt lat="53.574724" lon="10.007456">
<ele>4</ele>
<time>2026-04-20T05:01:48Z</time></trkpt>
<trkpt lat="53.574861" lon="10.007503">
<ele>4</ele>
<time>2026-04-20T05:02:02Z</time></trkpt>
<trkpt lat="53.575029" lon="10.007645">
<ele>4</ele>
<time>2026-04-20T05:02:21Z</time></trkpt>
<trkpt lat="53.575229" lon="10.007966">
<ele>4</ele>
<time>2026-04-20T05:02:49Z</time></trkpt>
<trkpt lat="53.575311" lon="10.008167">
<ele>4</ele>
<time>2026-04-20T05:03:03Z</time></trkpt>
<trkpt lat="53.575363" lon="10.008361">
<ele>4</ele>
<time>2026-04-20T05:03:16Z</time></trkpt>
<trkpt lat="53.575631" lon="10.011282">
<ele>4</ele>
<time>2026-04-20T05:06:11Z</time></trkpt>
<trkpt lat="53.577613" lon="10.009923">
<ele>4</ele>
<time>2026-04-20T05:09:50Z</time></trkpt>
<trkpt lat="53.578007" lon="10.009658">
<ele>6</ele>
<time>2026-04-20T05:10:36Z</time></trkpt>
<trkpt lat="53.578606" lon="10.009197">
<ele>5</ele>
<time>2026-04-20T05:11:45Z</time></trkpt>
<trkpt lat="53.579686" lon="10.008397">
<ele>4</ele>
<time>2026-04-20T05:13:41Z</time></trkpt>
<trkpt lat="53.583504" lon="10.005487">
<ele>5</ele>
<time>2026-04-20T05:20:54Z</time></trkpt>
<trkpt lat="53.586786" lon="10.003004">
<ele>5</ele>
<time>2026-04-20T05:26:51Z</time></trkpt>
<trkpt lat="53.587135" lon="10.002754">
<ele>4</ele>
<time>2026-04-20T05:27:28Z</time></trkpt>
<trkpt lat="53.58755" lon="10.003238">
<ele>4</ele>
<time>2026-04-20T05:28:18Z</time></trkpt>
<trkpt lat="53.58897" lon="10.004935">
<ele>7</ele>
<time>2026-04-20T05:31:32Z</time></trkpt>
<trkpt lat="53.589405" lon="10.005323">
<ele>8</ele>
<time>2026-04-20T05:32:32Z</time></trkpt>
<trkpt lat="53.589787" lon="10.005588">
<ele>9</ele>
<time>2026-04-20T05:33:21Z</time></trkpt>
<trkpt lat="53.590528" lon="10.006016">
<ele>11</ele>
<time>2026-04-20T05:34:48Z</time></trkpt>
<trkpt lat="53.591601" lon="10.006736">
<ele>12</ele>
<time>2026-04-20T05:36:54Z</time></trkpt>
<trkpt lat="53.591652" lon="10.006765">
<ele>12</ele>
<time>2026-04-20T05:37:00Z</time></trkpt>
<trkpt lat="53.593103" lon="10.007707">
<ele>15</ele>
<time>2026-04-20T05:39:50Z</time></trkpt>
<trkpt lat="53.593189" lon="10.007766">
<ele>15</ele>
<time>2026-04-20T05:40:01Z</time></trkpt>
<trkpt lat="53.593238" lon="10.007841">
<ele>15</ele>
<time>2026-04-20T05:40:08Z</time></trkpt>
<trkpt lat="53.593297" lon="10.008247">
<ele>16</ele>
<time>2026-04-20T05:40:38Z</time></trkpt>
<trkpt lat="53.593524" lon="10.010672">
<ele>18</ele>
<time>2026-04-20T05:43:23Z</time></trkpt>
<trkpt lat="53.593526" lon="10.011032">
<ele>18</ele>
<time>2026-04-20T05:43:44Z</time></trkpt>
<trkpt lat="53.593499" lon="10.011217">
<ele>18</ele>
<time>2026-04-20T05:43:56Z</time></trkpt>
<trkpt lat="53.593426" lon="10.01147">
<ele>18</ele>
<time>2026-04-20T05:44:12Z</time></trkpt>
<trkpt lat="53.593279" lon="10.011799">
<ele>18</ele>
<time>2026-04-20T05:44:37Z</time></trkpt>
<trkpt lat="53.592466" lon="10.013008">
<ele>17</ele>
<time>2026-04-20T05:46:24Z</time></trkpt>
<trkpt lat="53.592262" lon="10.013392">
<ele>17</ele>
<time>2026-04-20T05:46:53Z</time></trkpt>
<trkpt lat="53.592118" lon="10.013832">
<ele>16</ele>
<time>2026-04-20T05:47:22Z</time></trkpt>
<trkpt lat="53.59196" lon="10.014716">
<ele>16</ele>
<time>2026-04-20T05:48:16Z</time></trkpt>
<trkpt lat="53.59191" lon="10.015598">
<ele>16</ele>
<time>2026-04-20T05:49:08Z</time></trkpt>
<trkpt lat="53.591848" lon="10.016103">
<ele>15</ele>
<time>2026-04-20T05:49:38Z</time></trkpt>
<trkpt lat="53.59174" lon="10.017795">
<ele>14</ele>
<time>2026-04-20T05:51:14Z</time></trkpt>
<trkpt lat="53.591698" lon="10.01871">
<ele>13</ele>
<time>2026-04-20T05:52:07Z</time></trkpt>
<trkpt lat="53.591651" lon="10.019927">
<ele>11</ele>
<time>2026-04-20T05:53:15Z</time></trkpt>
<trkpt lat="53.591622" lon="10.021459">
<ele>10</ele>
<time>2026-04-20T05:54:43Z</time></trkpt>
<trkpt lat="53.591582" lon="10.021912">
<ele>9</ele>
<time>2026-04-20T05:55:08Z</time></trkpt>
<trkpt lat="53.591508" lon="10.022516">
<ele>8</ele>
<time>2026-04-20T05:55:43Z</time></trkpt>
<trkpt lat="53.591365" lon="10.02314">
<ele>8</ele>
<time>2026-04-20T05:56:21Z</time></trkpt>
<trkpt lat="53.591269" lon="10.023744">
<ele>7</ele>
<time>2026-04-20T05:56:57Z</time></trkpt>
<trkpt lat="53.591229" lon="10.024096">
<ele>7</ele>
<time>2026-04-20T05:57:17Z</time></trkpt>
<trkpt lat="53.591194" lon="10.025064">
<ele>4</ele>
<time>2026-04-20T05:58:13Z</time></trkpt>
<trkpt lat="53.59095" lon="10.027516">
<ele>6</ele>
<time>2026-04-20T06:00:40Z</time></trkpt>
<trkpt lat="53.590933" lon="10.027908">
<ele>6</ele>
<time>2026-04-20T06:01:04Z</time></trkpt>
<trkpt lat="53.590941" lon="10.028437">
<ele>6</ele>
<time>2026-04-20T06:01:37Z</time></trkpt>
<trkpt lat="53.590974" lon="10.028793">
<ele>6</ele>
<time>2026-04-20T06:02:00Z</time></trkpt>
<trkpt lat="53.591094" lon="10.029429">
<ele>7</ele>
<time>2026-04-20T06:02:43Z</time></trkpt>
<trkpt lat="53.591242" lon="10.029859">
<ele>6</ele>
<time>2026-04-20T06:03:13Z</time></trkpt>
<trkpt lat="53.591367" lon="10.030119">
<ele>6</ele>
<time>2026-04-20T06:03:33Z</time></trkpt>
<trkpt lat="53.591502" lon="10.030272">
<ele>6</ele>
<time>2026-04-20T06:03:49Z</time></trkpt>
<trkpt lat="53.592983" lon="10.031296">
<ele>6</ele>
<time>2026-04-20T06:06:27Z</time></trkpt>
<trkpt lat="53.593114" lon="10.031424">
<ele>6</ele>
<time>2026-04-20T06:06:42Z</time></trkpt>
<trkpt lat="53.593661" lon="10.032019">
<ele>8</ele>
<time>2026-04-20T06:07:58Z</time></trkpt>
<trkpt lat="53.595942" lon="10.031447">
<ele>8</ele>
<time>2026-04-20T06:11:54Z</time></trkpt>
<trkpt lat="53.596219" lon="10.031418">
<ele>8</ele>
<time>2026-04-20T06:12:24Z</time></trkpt>
<trkpt lat="53.596228" lon="10.031714">
<ele>7</ele>
<time>2026-04-20T06:12:41Z</time></trkpt>
<trkpt lat="53.596248" lon="10.031866">
<ele>7</ele>
<time>2026-04-20T06:12:50Z</time></trkpt>
<trkpt lat="53.59766" lon="10.037618">
<ele>10</ele>
<time>2026-04-20T06:19:18Z</time></trkpt>
<trkpt lat="53.598564" lon="10.041367">
<ele>15</ele>
<time>2026-04-20T06:23:53Z</time></trkpt>
<trkpt lat="53.598622" lon="10.041682">
<ele>15</ele>
<time>2026-04-20T06:24:14Z</time></trkpt>
<trkpt lat="53.598637" lon="10.041798">
<ele>15</ele>
<time>2026-04-20T06:24:21Z</time></trkpt>
<trkpt lat="53.599221" lon="10.041382">
<ele>14</ele>
<time>2026-04-20T06:25:22Z</time></trkpt>
<trkpt lat="53.599425" lon="10.041291">
<ele>14</ele>
<time>2026-04-20T06:25:44Z</time></trkpt>
<trkpt lat="53.599677" lon="10.041228">
<ele>14</ele>
<time>2026-04-20T06:26:09Z</time></trkpt>
<trkpt lat="53.602443" lon="10.040787">
<ele>16</ele>
<time>2026-04-20T06:31:01Z</time></trkpt>
<trkpt lat="53.603807" lon="10.040432">
<ele>18</ele>
<time>2026-04-20T06:33:31Z</time></trkpt>
<trkpt lat="53.60484" lon="10.040035">
<ele>19</ele>
<time>2026-04-20T06:35:26Z</time></trkpt>
<trkpt lat="53.605163" lon="10.039902">
<ele>19</ele>
<time>2026-04-20T06:36:00Z</time></trkpt>
<trkpt lat="53.605912" lon="10.039472">
<ele>19</ele>
<time>2026-04-20T06:37:18Z</time></trkpt>
<trkpt lat="53.606544" lon="10.039176">
<ele>18</ele>
<time>2026-04-20T06:38:22Z</time></trkpt>
<trkpt lat="53.607276" lon="10.038883">
<ele>18</ele>
<time>2026-04-20T06:39:37Z</time></trkpt>
<trkpt lat="53.60785" lon="10.03871">
<ele>18</ele>
<time>2026-04-20T06:40:36Z</time></trkpt>
<trkpt lat="53.608195" lon="10.038397">
<ele>18</ele>
<time>2026-04-20T06:41:15Z</time></trkpt>
<trkpt lat="53.608152" lon="10.037323">
<ele>18</ele>
<time>2026-04-20T06:42:20Z</time></trkpt>
<trkpt lat="53.608161" lon="10.037171">
<ele>18</ele>
<time>2026-04-20T06:42:30Z</time></trkpt>
<trkpt lat="53.608107" lon="10.036664">
<ele>19</ele>
<time>2026-04-20T06:43:03Z</time></trkpt>
<trkpt lat="53.607758" lon="10.034555">
<ele>19</ele>
<time>2026-04-20T06:45:15Z</time></trkpt>
<trkpt lat="53.607653" lon="10.03395">
<ele>19</ele>
<time>2026-04-20T06:45:53Z</time></trkpt>
<trkpt lat="53.606937" lon="10.030386">
<ele>17</ele>
<time>2026-04-20T06:49:45Z</time></trkpt>
<trkpt lat="53.606737" lon="10.029566">
<ele>16</ele>
<time>2026-04-20T06:50:35Z</time></trkpt>
<trkpt lat="53.606477" lon="10.028718">
<ele>15</ele>
<time>2026-04-20T06:51:30Z</time></trkpt>
<trkpt lat="53.605987" lon="10.027138">
<ele>15</ele>
<time>2026-04-20T06:53:14Z</time></trkpt>
<trkpt lat="53.60545" lon="10.025523">
<ele>11</ele>
<time>2026-04-20T06:54:57Z</time></trkpt>
<trkpt lat="53.605441" lon="10.025526">
<ele>11</ele>
<time>2026-04-20T06:54:57Z</time></trkpt>
<trkpt lat="53.60545" lon="10.025523">
<ele>11</ele>
<time>2026-04-20T06:54:58Z</time></trkpt>
<trkpt lat="53.605432" lon="10.025239">
<ele>11</ele>
<time>2026-04-20T06:55:15Z</time></trkpt>
<trkpt lat="53.605457" lon="10.025085">
<ele>11</ele>
<time>2026-04-20T06:55:24Z</time></trkpt>
<trkpt lat="53.605531" lon="10.024954">
<ele>11</ele>
<time>2026-04-20T06:55:34Z</time></trkpt>
<trkpt lat="53.605689" lon="10.024759">
<ele>11</ele>
<time>2026-04-20T06:55:54Z</time></trkpt>
<trkpt lat="53.606116" lon="10.024527">
<ele>11</ele>
<time>2026-04-20T06:56:39Z</time></trkpt>
<trkpt lat="53.606199" lon="10.024458">
<ele>11</ele>
<time>2026-04-20T06:56:48Z</time></trkpt>
<trkpt lat="53.606452" lon="10.024203">
<ele>12</ele>
<time>2026-04-20T06:57:19Z</time></trkpt>
<trkpt lat="53.606596" lon="10.023991">
<ele>12</ele>
<time>2026-04-20T06:57:40Z</time></trkpt>
<trkpt lat="53.606714" lon="10.02377">
<ele>12</ele>
<time>2026-04-20T06:57:59Z</time></trkpt>
<trkpt lat="53.606802" lon="10.02352">
<ele>12</ele>
<time>2026-04-20T06:58:18Z</time></trkpt>
<trkpt lat="53.606875" lon="10.023224">
<ele>12</ele>
<time>2026-04-20T06:58:38Z</time></trkpt>
<trkpt lat="53.606951" lon="10.022574">
<ele>12</ele>
<time>2026-04-20T06:59:17Z</time></trkpt>
<trkpt lat="53.606946" lon="10.021637">
<ele>13</ele>
<time>2026-04-20T07:00:15Z</time></trkpt>
<trkpt lat="53.606913" lon="10.021155">
<ele>13</ele>
<time>2026-04-20T07:00:46Z</time></trkpt>
<trkpt lat="53.606857" lon="10.020653">
<ele>13</ele>
<time>2026-04-20T07:01:19Z</time></trkpt>
<trkpt lat="53.606718" lon="10.019774">
<ele>14</ele>
<time>2026-04-20T07:02:18Z</time></trkpt>
<trkpt lat="53.606597" lon="10.019257">
<ele>14</ele>
<time>2026-04-20T07:02:53Z</time></trkpt>
<trkpt lat="53.606489" lon="10.018935">
<ele>14</ele>
<time>2026-04-20T07:03:15Z</time></trkpt>
<trkpt lat="53.606286" lon="10.018528">
<ele>14</ele>
<time>2026-04-20T07:03:46Z</time></trkpt>
<trkpt lat="53.606135" lon="10.018352">
<ele>14</ele>
<time>2026-04-20T07:04:05Z</time></trkpt>
<trkpt lat="53.605985" lon="10.018242">
<ele>14</ele>
<time>2026-04-20T07:04:21Z</time></trkpt>
<trkpt lat="53.605364" lon="10.018093">
<ele>14</ele>
<time>2026-04-20T07:05:24Z</time></trkpt>
<trkpt lat="53.60538" lon="10.018096">
<ele>14</ele>
<time>2026-04-20T07:05:25Z</time></trkpt>
<trkpt lat="53.605199" lon="10.017959">
<ele>14</ele>
<time>2026-04-20T07:05:45Z</time></trkpt>
<trkpt lat="53.605224" lon="10.017796">
<ele>14</ele>
<time>2026-04-20T07:05:55Z</time></trkpt>
<trkpt lat="53.605214" lon="10.017657">
<ele>14</ele>
<time>2026-04-20T07:06:04Z</time></trkpt>
<trkpt lat="53.605198" lon="10.017542">
<ele>14</ele>
<time>2026-04-20T07:06:11Z</time></trkpt>
<trkpt lat="53.605198" lon="10.017191">
<ele>14</ele>
<time>2026-04-20T07:06:11Z</time></trkpt>
<trkpt lat="53.605223" lon="10.016934">
<ele>14</ele>
<time>2026-04-20T07:06:26Z</time></trkpt>
<trkpt lat="53.60527" lon="10.016706">
<ele>14</ele>
<time>2026-04-20T07:06:40Z</time></trkpt>
<trkpt lat="53.605274" lon="10.016464">
<ele>14</ele>
<time>2026-04-20T07:06:55Z</time></trkpt>
<trkpt lat="53.605029" lon="10.01277">
<ele>13</ele>
<time>2026-04-20T07:10:33Z</time></trkpt>
<trkpt lat="53.60556" lon="10.012698">
<ele>13</ele>
<time>2026-04-20T07:11:25Z</time></trkpt>
<trkpt lat="53.606847" lon="10.01244">
<ele>11</ele>
<time>2026-04-20T07:13:33Z</time></trkpt>
<trkpt lat="53.607469" lon="10.012306">
<ele>11</ele>
<time>2026-04-20T07:14:34Z</time></trkpt>
<trkpt lat="53.608995" lon="10.012046">
<ele>10</ele>
<time>2026-04-20T07:17:04Z</time></trkpt>
<trkpt lat="53.609302" lon="10.011968">
<ele>10</ele>
<time>2026-04-20T07:17:35Z</time></trkpt>
<trkpt lat="53.610103" lon="10.01167">
<ele>9</ele>
<time>2026-04-20T07:18:55Z</time></trkpt>
<trkpt lat="53.610202" lon="10.011787">
<ele>9</ele>
<time>2026-04-20T07:19:07Z</time></trkpt>
<trkpt lat="53.610295" lon="10.01163">
<ele>9</ele>
<time>2026-04-20T07:19:20Z</time></trkpt>
<trkpt lat="53.61025" lon="10.01155">
<ele>9</ele>
<time>2026-04-20T07:19:27Z</time></trkpt>
<trkpt lat="53.610526" lon="10.011269">
<ele>9</ele>
<time>2026-04-20T07:19:59Z</time></trkpt>
<trkpt lat="53.611618" lon="10.010466">
<ele>8</ele>
<time>2026-04-20T07:21:55Z</time></trkpt>
<trkpt lat="53.611712" lon="10.01031">
<ele>8</ele>
<time>2026-04-20T07:22:07Z</time></trkpt>
<trkpt lat="53.612253" lon="10.012157">
<ele>7</ele>
<time>2026-04-20T07:24:08Z</time></trkpt>
<trkpt lat="53.613214" lon="10.01459">
<ele>6</ele>
<time>2026-04-20T07:27:07Z</time></trkpt>
<trkpt lat="53.614202" lon="10.017012">
<ele>7</ele>
<time>2026-04-20T07:30:01Z</time></trkpt>
<trkpt lat="53.614399" lon="10.017409">
<ele>7</ele>
<time>2026-04-20T07:30:32Z</time></trkpt>
<trkpt lat="53.615102" lon="10.01901">
<ele>7</ele>
<time>2026-04-20T07:32:37Z</time></trkpt>
<trkpt lat="53.619296" lon="10.027467">
<ele>8</ele>
<time>2026-04-20T07:43:33Z</time></trkpt>
<trkpt lat="53.619413" lon="10.027783">
<ele>7</ele>
<time>2026-04-20T07:43:55Z</time></trkpt>
<trkpt lat="53.619485" lon="10.028039">
<ele>8</ele>
<time>2026-04-20T07:44:12Z</time></trkpt>
<trkpt lat="53.619525" lon="10.028249">
<ele>7</ele>
<time>2026-04-20T07:44:25Z</time></trkpt>
<trkpt lat="53.619574" lon="10.028709">
<ele>8</ele>
<time>2026-04-20T07:44:58Z</time></trkpt>
<trkpt lat="53.619563" lon="10.029324">
<ele>9</ele>
<time>2026-04-20T07:45:41Z</time></trkpt>
<trkpt lat="53.619475" lon="10.029889">
<ele>10</ele>
<time>2026-04-20T07:46:20Z</time></trkpt>
<trkpt lat="53.61946" lon="10.03018">
<ele>10</ele>
<time>2026-04-20T07:46:39Z</time></trkpt>
<trkpt lat="53.619461" lon="10.030351">
<ele>10</ele>
<time>2026-04-20T07:46:50Z</time></trkpt>
<trkpt lat="53.619558" lon="10.030552">
<ele>10</ele>
<time>2026-04-20T07:47:07Z</time></trkpt>
<trkpt lat="53.619634" lon="10.030666">
<ele>10</ele>
<time>2026-04-20T07:47:18Z</time></trkpt>
<trkpt lat="53.62059" lon="10.030892">
<ele>11</ele>
<time>2026-04-20T07:49:02Z</time></trkpt>
<trkpt lat="53.620756" lon="10.030903">
<ele>11</ele>
<time>2026-04-20T07:49:19Z</time></trkpt>
<trkpt lat="53.621278" lon="10.031076">
<ele>11</ele>
<time>2026-04-20T07:50:12Z</time></trkpt>
<trkpt lat="53.621792" lon="10.031164">
<ele>11</ele>
<time>2026-04-20T07:51:08Z</time></trkpt>
<trkpt lat="53.622064" lon="10.031176">
<ele>11</ele>
<time>2026-04-20T07:51:37Z</time></trkpt>
<trkpt lat="53.622488" lon="10.031253">
<ele>11</ele>
<time>2026-04-20T07:52:17Z</time></trkpt>
<trkpt lat="53.622797" lon="10.026367">
<ele>9</ele>
<time>2026-04-20T07:57:09Z</time></trkpt>
<trkpt lat="53.622794" lon="10.026071">
<ele>9</ele>
<time>2026-04-20T07:57:27Z</time></trkpt>
<trkpt lat="53.622002" lon="10.026011">
<ele>10</ele>
<time>2026-04-20T07:58:48Z</time></trkpt>
<trkpt lat="53.621702" lon="10.025948">
<ele>10</ele>
<time>2026-04-20T07:59:21Z</time></trkpt>
<trkpt lat="53.62156" lon="10.025871">
<ele>10</ele>
<time>2026-04-20T07:59:37Z</time></trkpt>
<trkpt lat="53.621337" lon="10.025699">
<ele>10</ele>
<time>2026-04-20T08:00:04Z</time></trkpt>
<trkpt lat="53.62108" lon="10.025371">
<ele>11</ele>
<time>2026-04-20T08:00:39Z</time></trkpt>
<trkpt lat="53.619596" lon="10.023308">
<ele>12</ele>
<time>2026-04-20T08:04:02Z</time></trkpt>
<trkpt lat="53.61928" lon="10.022818">
<ele>11</ele>
<time>2026-04-20T08:04:44Z</time></trkpt>
<trkpt lat="53.619064" lon="10.022412">
<ele>11</ele>
<time>2026-04-20T08:05:15Z</time></trkpt>
<trkpt lat="53.61893" lon="10.022127">
<ele>11</ele>
<time>2026-04-20T08:05:36Z</time></trkpt>
<trkpt lat="53.618678" lon="10.02144">
<ele>10</ele>
<time>2026-04-20T08:06:23Z</time></trkpt>
<trkpt lat="53.618282" lon="10.019967">
<ele>10</ele>
<time>2026-04-20T08:07:58Z</time></trkpt>
<trkpt lat="53.617357" lon="10.016475">
<ele>9</ele>
<time>2026-04-20T08:11:42Z</time></trkpt>
<trkpt lat="53.617149" lon="10.015742">
<ele>9</ele>
<time>2026-04-20T08:12:30Z</time></trkpt>
<trkpt lat="53.616837" lon="10.014786">
<ele>9</ele>
<time>2026-04-20T08:13:35Z</time></trkpt>
<trkpt lat="53.614886" lon="10.008904">
<ele>8</ele>
<time>2026-04-20T08:20:12Z</time></trkpt>
<trkpt lat="53.614797" lon="10.008475">
<ele>8</ele>
<time>2026-04-20T08:20:39Z</time></trkpt>
<trkpt lat="53.614673" lon="10.007489">
<ele>7</ele>
<time>2026-04-20T08:21:37Z</time></trkpt>
<trkpt lat="53.614403" lon="10.005697">
<ele>7</ele>
<time>2026-04-20T08:23:26Z</time></trkpt>
<trkpt lat="53.614303" lon="10.005252">
<ele>7</ele>
<time>2026-04-20T08:23:55Z</time></trkpt>
<trkpt lat="53.613648" lon="10.002633">
<ele>7</ele>
<time>2026-04-20T08:26:43Z</time></trkpt>
<trkpt lat="53.613608" lon="10.002324">
<ele>7</ele>
<time>2026-04-20T08:27:02Z</time></trkpt>
<trkpt lat="53.613535" lon="10.001196">
<ele>6</ele>
<time>2026-04-20T08:28:07Z</time></trkpt>
<trkpt lat="53.613534" lon="10.001206">
<ele>6</ele>
<time>2026-04-20T08:28:08Z</time></trkpt>
<trkpt lat="53.613493" lon="10.000653">
<ele>6</ele>
<time>2026-04-20T08:28:41Z</time></trkpt>
<trkpt lat="53.613451" lon="10.000373">
<ele>6</ele>
<time>2026-04-20T08:28:58Z</time></trkpt>
<trkpt lat="53.613461" lon="10.000388">
<ele>6</ele>
<time>2026-04-20T08:28:59Z</time></trkpt>
<trkpt lat="53.61307" lon="9.999774">
<ele>6</ele>
<time>2026-04-20T08:29:52Z</time></trkpt>
<trkpt lat="53.612939" lon="9.999756">
<ele>6</ele>
<time>2026-04-20T08:30:06Z</time></trkpt>
<trkpt lat="53.612717" lon="9.999843">
<ele>6</ele>
<time>2026-04-20T08:30:28Z</time></trkpt>
<trkpt lat="53.61263" lon="9.999811">
<ele>6</ele>
<time>2026-04-20T08:30:37Z</time></trkpt>
<trkpt lat="53.612417" lon="9.99999">
<ele>6</ele>
<time>2026-04-20T08:31:01Z</time></trkpt>
<trkpt lat="53.612331" lon="10.000088">
<ele>6</ele>
<time>2026-04-20T08:31:11Z</time></trkpt>
<trkpt lat="53.611514" lon="10.001283">
<ele>4</ele>
<time>2026-04-20T08:33:01Z</time></trkpt>
<trkpt lat="53.610926" lon="10.002191">
<ele>7</ele>
<time>2026-04-20T08:34:24Z</time></trkpt>
<trkpt lat="53.61078" lon="10.001795">
<ele>6</ele>
<time>2026-04-20T08:34:52Z</time></trkpt>
<trkpt lat="53.610356" lon="10.00082">
<ele>6</ele>
<time>2026-04-20T08:36:04Z</time></trkpt>
<trkpt lat="53.610009" lon="10.000173">
<ele>6</ele>
<time>2026-04-20T08:36:55Z</time></trkpt>
<trkpt lat="53.609694" lon="9.999655">
<ele>6</ele>
<time>2026-04-20T08:37:39Z</time></trkpt>
<trkpt lat="53.609308" lon="9.999069">
<ele>6</ele>
<time>2026-04-20T08:38:31Z</time></trkpt>
<trkpt lat="53.608772" lon="9.998408">
<ele>6</ele>
<time>2026-04-20T08:39:41Z</time></trkpt>
<trkpt lat="53.60826" lon="9.997899">
<ele>7</ele>
<time>2026-04-20T08:40:44Z</time></trkpt>
<trkpt lat="53.607606" lon="9.997317">
<ele>7</ele>
<time>2026-04-20T08:41:58Z</time></trkpt>
<trkpt lat="53.607299" lon="9.997121">
<ele>6</ele>
<time>2026-04-20T08:42:29Z</time></trkpt>
<trkpt lat="53.607032" lon="9.996981">
<ele>4</ele>
<time>2026-04-20T08:42:55Z</time></trkpt>
<trkpt lat="53.606812" lon="9.996879">
<ele>6</ele>
<time>2026-04-20T08:43:18Z</time></trkpt>
<trkpt lat="53.606467" lon="9.996776">
<ele>7</ele>
<time>2026-04-20T08:44:00Z</time></trkpt>
<trkpt lat="53.60631" lon="9.99675">
<ele>7</ele>
<time>2026-04-20T08:44:18Z</time></trkpt>
<trkpt lat="53.606102" lon="9.996755">
<ele>7</ele>
<time>2026-04-20T08:44:43Z</time></trkpt>
<trkpt lat="53.605763" lon="9.996869">
<ele>7</ele>
<time>2026-04-20T08:45:17Z</time></trkpt>
<trkpt lat="53.605473" lon="9.99702">
<ele>7</ele>
<time>2026-04-20T08:45:48Z</time></trkpt>
<trkpt lat="53.6050062" lon="9.9973065">
<ele>7</ele>
<time>2026-04-20T08:46:36Z</time></trkpt>
<trkpt lat="53.6047165" lon="9.9972743">
<ele>6</ele>
<time>2026-04-20T08:47:04Z</time></trkpt>
<trkpt lat="53.60472" lon="9.997265">
<ele>6</ele>
<time>2026-04-20T08:47:05Z</time></trkpt>
<trkpt lat="53.604179" lon="9.996731">
<ele>6</ele>
<time>2026-04-20T08:48:07Z</time></trkpt>
<trkpt lat="53.602778" lon="9.995227">
<ele>6</ele>
<time>2026-04-20T08:50:53Z</time></trkpt>
<trkpt lat="53.60233" lon="9.994835">
<ele>6</ele>
<time>2026-04-20T08:51:46Z</time></trkpt>
<trkpt lat="53.602161" lon="9.994702">
<ele>6</ele>
<time>2026-04-20T08:52:06Z</time></trkpt>
<trkpt lat="53.601611" lon="9.994359">
<ele>7</ele>
<time>2026-04-20T08:53:08Z</time></trkpt>
<trkpt lat="53.601429" lon="9.994213">
<ele>6</ele>
<time>2026-04-20T08:53:27Z</time></trkpt>
<trkpt lat="53.600868" lon="9.994016">
<ele>6</ele>
<time>2026-04-20T08:54:23Z</time></trkpt>
<trkpt lat="53.599921" lon="9.993884">
<ele>6</ele>
<time>2026-04-20T08:55:58Z</time></trkpt>
<trkpt lat="53.599364" lon="9.99387">
<ele>6</ele>
<time>2026-04-20T08:56:54Z</time></trkpt>
<trkpt lat="53.59884" lon="9.993905">
<ele>6</ele>
<time>2026-04-20T08:57:47Z</time></trkpt>
<trkpt lat="53.594586" lon="9.995316">
<ele>5</ele>
<time>2026-04-20T09:05:02Z</time></trkpt>
<trkpt lat="53.594355" lon="9.995436">
<ele>6</ele>
<time>2026-04-20T09:05:26Z</time></trkpt>
<trkpt lat="53.594163" lon="9.9956">
<ele>5</ele>
<time>2026-04-20T09:05:48Z</time></trkpt>
<trkpt lat="53.593954" lon="9.995795">
<ele>5</ele>
<time>2026-04-20T09:06:12Z</time></trkpt>
<trkpt lat="53.5938393" lon="9.9954827">
<ele>5</ele>
<time>2026-04-20T09:06:35Z</time></trkpt>
<trkpt lat="53.5936574" lon="9.9949998">
<ele>5</ele>
<time>2026-04-20T09:07:12Z</time></trkpt>
<trkpt lat="53.5934317" lon="9.9944164">
<ele>6</ele>
<time>2026-04-20T09:07:56Z</time></trkpt>
<trkpt lat="53.593026" lon="9.993437">
<ele>4</ele>
<time>2026-04-20T09:09:05Z</time></trkpt>
<trkpt lat="53.592891" lon="9.993001">
<ele>6</ele>
<time>2026-04-20T09:09:34Z</time></trkpt>
<trkpt lat="53.592754" lon="9.992727">
<ele>6</ele>
<time>2026-04-20T09:09:55Z</time></trkpt>
<trkpt lat="53.592704" lon="9.992504">
<ele>5</ele>
<time>2026-04-20T09:10:09Z</time></trkpt>
<trkpt lat="53.592695" lon="9.992372">
<ele>5</ele>
<time>2026-04-20T09:10:17Z</time></trkpt>
<trkpt lat="53.592711" lon="9.992263">
<ele>5</ele>
<time>2026-04-20T09:10:24Z</time></trkpt>
<trkpt lat="53.5927245" lon="9.9918616">
<ele>5</ele>
<time>2026-04-20T09:10:49Z</time></trkpt>
<trkpt lat="53.593011" lon="9.9910569">
<ele>6</ele>
<time>2026-04-20T09:11:50Z</time></trkpt>
<trkpt lat="53.593006" lon="9.991053">
<ele>6</ele>
<time>2026-04-20T09:11:50Z</time></trkpt>
<trkpt lat="53.593068" lon="9.990824">
<ele>5</ele>
<time>2026-04-20T09:12:06Z</time></trkpt>
<trkpt lat="53.593113" lon="9.990536">
<ele>5</ele>
<time>2026-04-20T09:12:23Z</time></trkpt>
<trkpt lat="53.593131" lon="9.989535">
<ele>5</ele>
<time>2026-04-20T09:13:21Z</time></trkpt>
<trkpt lat="53.593108" lon="9.989405">
<ele>5</ele>
<time>2026-04-20T09:13:30Z</time></trkpt>
<trkpt lat="53.593061" lon="9.989246">
<ele>5</ele>
<time>2026-04-20T09:13:41Z</time></trkpt>
<trkpt lat="53.593002" lon="9.989138">
<ele>5</ele>
<time>2026-04-20T09:13:51Z</time></trkpt>
<trkpt lat="53.592609" lon="9.988789">
<ele>6</ele>
<time>2026-04-20T09:14:39Z</time></trkpt>
<trkpt lat="53.592506" lon="9.988664">
<ele>6</ele>
<time>2026-04-20T09:14:52Z</time></trkpt>
<trkpt lat="53.592474" lon="9.988584">
<ele>6</ele>
<time>2026-04-20T09:14:58Z</time></trkpt>
<trkpt lat="53.592364" lon="9.988533">
<ele>6</ele>
<time>2026-04-20T09:15:09Z</time></trkpt>
<trkpt lat="53.59207" lon="9.988316">
<ele>6</ele>
<time>2026-04-20T09:15:41Z</time></trkpt>
<trkpt lat="53.590724" lon="9.987509">
<ele>6</ele>
<time>2026-04-20T09:18:04Z</time></trkpt>
<trkpt lat="53.590419" lon="9.987345">
<ele>6</ele>
<time>2026-04-20T09:18:36Z</time></trkpt>
<trkpt lat="53.589444" lon="9.986878">
<ele>6</ele>
<time>2026-04-20T09:20:18Z</time></trkpt>
<trkpt lat="53.589013" lon="9.986591">
<ele>6</ele>
<time>2026-04-20T09:21:04Z</time></trkpt>
<trkpt lat="53.588738" lon="9.986326">
<ele>6</ele>
<time>2026-04-20T09:21:36Z</time></trkpt>
<trkpt lat="53.58702" lon="9.984204">
<ele>6</ele>
<time>2026-04-20T09:25:09Z</time></trkpt>
<trkpt lat="53.586328" lon="9.983392">
<ele>5</ele>
<time>2026-04-20T09:26:31Z</time></trkpt>
<trkpt lat="53.585769" lon="9.982697">
<ele>5</ele>
<time>2026-04-20T09:27:40Z</time></trkpt>
<trkpt lat="53.585614" lon="9.982584">
<ele>5</ele>
<time>2026-04-20T09:27:57Z</time></trkpt>
<trkpt lat="53.58536" lon="9.982196">
<ele>5</ele>
<time>2026-04-20T09:28:31Z</time></trkpt>
<trkpt lat="53.585222" lon="9.981832">
<ele>5</ele>
<time>2026-04-20T09:28:57Z</time></trkpt>
<trkpt lat="53.58511" lon="9.981814">
<ele>5</ele>
<time>2026-04-20T09:29:08Z</time></trkpt>
<trkpt lat="53.584946" lon="9.981827">
<ele>5</ele>
<time>2026-04-20T09:29:25Z</time></trkpt>
<trkpt lat="53.584802" lon="9.981886">
<ele>5</ele>
<time>2026-04-20T09:29:39Z</time></trkpt>
<trkpt lat="53.584681" lon="9.981901">
<ele>5</ele>
<time>2026-04-20T09:29:51Z</time></trkpt>
<trkpt lat="53.584553" lon="9.982064">
<ele>5</ele>
<time>2026-04-20T09:30:08Z</time></trkpt>
<trkpt lat="53.58448" lon="9.982182">
<ele>5</ele>
<time>2026-04-20T09:30:18Z</time></trkpt>
<trkpt lat="53.583467" lon="9.984541">
<ele>6</ele>
<time>2026-04-20T09:33:23Z</time></trkpt>
<trkpt lat="53.583126" lon="9.98528">
<ele>6</ele>
<time>2026-04-20T09:34:20Z</time></trkpt>
<trkpt lat="53.582145" lon="9.987582">
<ele>8</ele>
<time>2026-04-20T09:37:19Z</time></trkpt>
<trkpt lat="53.582002" lon="9.987864">
<ele>8</ele>
<time>2026-04-20T09:37:43Z</time></trkpt>
<trkpt lat="53.581938" lon="9.987954">
<ele>9</ele>
<time>2026-04-20T09:37:52Z</time></trkpt>
<trkpt lat="53.581844" lon="9.987887">
<ele>9</ele>
<time>2026-04-20T09:38:03Z</time></trkpt>
<trkpt lat="53.581748" lon="9.987861">
<ele>9</ele>
<time>2026-04-20T09:38:14Z</time></trkpt>
<trkpt lat="53.581573" lon="9.987899">
<ele>9</ele>
<time>2026-04-20T09:38:33Z</time></trkpt>
<trkpt lat="53.581457" lon="9.988007">
<ele>10</ele>
<time>2026-04-20T09:38:48Z</time></trkpt>
<trkpt lat="53.581369" lon="9.98816">
<ele>10</ele>
<time>2026-04-20T09:39:01Z</time></trkpt>
<trkpt lat="53.581306" lon="9.988367">
<ele>10</ele>
<time>2026-04-20T09:39:16Z</time></trkpt>
<trkpt lat="53.581288" lon="9.988541">
<ele>10</ele>
<time>2026-04-20T09:39:28Z</time></trkpt>
<trkpt lat="53.581298" lon="9.98877">
<ele>10</ele>
<time>2026-04-20T09:39:41Z</time></trkpt>
<trkpt lat="53.581334" lon="9.988927">
<ele>10</ele>
<time>2026-04-20T09:39:51Z</time></trkpt>
<trkpt lat="53.58138" lon="9.989046">
<ele>9</ele>
<time>2026-04-20T09:39:59Z</time></trkpt>
<trkpt lat="53.581247" lon="9.989437">
<ele>9</ele>
<time>2026-04-20T09:40:25Z</time></trkpt>
<trkpt lat="53.580756" lon="9.990274">
<ele>9</ele>
<time>2026-04-20T09:41:38Z</time></trkpt>
<trkpt lat="53.58069" lon="9.990418">
<ele>10</ele>
<time>2026-04-20T09:41:50Z</time></trkpt>
<trkpt lat="53.580601" lon="9.990713">
<ele>10</ele>
<time>2026-04-20T09:42:11Z</time></trkpt>
<trkpt lat="53.580496" lon="9.991194">
<ele>10</ele>
<time>2026-04-20T09:42:42Z</time></trkpt>
<trkpt lat="53.579913" lon="9.99327">
<ele>10</ele>
<time>2026-04-20T09:44:59Z</time></trkpt>
<trkpt lat="53.579723" lon="9.993788">
<ele>11</ele>
<time>2026-04-20T09:45:38Z</time></trkpt>
<trkpt lat="53.579738" lon="9.993804">
<ele>11</ele>
<time>2026-04-20T09:45:40Z</time></trkpt>
<trkpt lat="53.579783" lon="9.993892">
<ele>11</ele>
<time>2026-04-20T09:45:47Z</time></trkpt>
<trkpt lat="53.579787" lon="9.993974">
<ele>11</ele>
<time>2026-04-20T09:45:53Z</time></trkpt>
<trkpt lat="53.579758" lon="9.994065">
<ele>11</ele>
<time>2026-04-20T09:45:59Z</time></trkpt>
<trkpt lat="53.579716" lon="9.994107">
<ele>11</ele>
<time>2026-04-20T09:46:05Z</time></trkpt>
<trkpt lat="53.579443" lon="9.995046">
<ele>10</ele>
<time>2026-04-20T09:47:06Z</time></trkpt>
<trkpt lat="53.579357" lon="9.995269">
<ele>9</ele>
<time>2026-04-20T09:47:21Z</time></trkpt>
<trkpt lat="53.57932" lon="9.995419">
<ele>9</ele>
<time>2026-04-20T09:47:30Z</time></trkpt>
<trkpt lat="53.579194" lon="9.995832">
<ele>8</ele>
<time>2026-04-20T09:47:56Z</time></trkpt>
<trkpt lat="53.578663" lon="9.996878">
<ele>8</ele>
<time>2026-04-20T09:49:16Z</time></trkpt>
<trkpt lat="53.578577" lon="9.997014">
<ele>8</ele>
<time>2026-04-20T09:49:28Z</time></trkpt>
<trkpt lat="53.578494" lon="9.997212">
<ele>7</ele>
<time>2026-04-20T09:49:42Z</time></trkpt>
<trkpt lat="53.578455" lon="9.997241">
<ele>8</ele>
<time>2026-04-20T09:49:46Z</time></trkpt>
<trkpt lat="53.578426" lon="9.997332">
<ele>8</ele>
<time>2026-04-20T09:49:52Z</time></trkpt>
<trkpt lat="53.578341" lon="9.997452">
<ele>8</ele>
<time>2026-04-20T09:50:04Z</time></trkpt>
<trkpt lat="53.578231" lon="9.997661">
<ele>8</ele>
<time>2026-04-20T09:50:20Z</time></trkpt>
<trkpt lat="53.57816" lon="9.997827">
<ele>8</ele>
<time>2026-04-20T09:50:32Z</time></trkpt>
<trkpt lat="53.578058" lon="9.998166">
<ele>7</ele>
<time>2026-04-20T09:50:53Z</time></trkpt>
<trkpt lat="53.577956" lon="9.998771">
<ele>6</ele>
<time>2026-04-20T09:51:28Z</time></trkpt>
<trkpt lat="53.577901" lon="9.998991">
<ele>6</ele>
<time>2026-04-20T09:51:41Z</time></trkpt>
<trkpt lat="53.577796" lon="9.999226">
<ele>5</ele>
<time>2026-04-20T09:51:58Z</time></trkpt>
<trkpt lat="53.577678" lon="9.999438">
<ele>5</ele>
<time>2026-04-20T09:52:15Z</time></trkpt>
<trkpt lat="53.577457" lon="9.999635">
<ele>5</ele>
<time>2026-04-20T09:52:39Z</time></trkpt>
<trkpt lat="53.577296" lon="9.99973">
<ele>5</ele>
<time>2026-04-20T09:52:56Z</time></trkpt>
<trkpt lat="53.577132" lon="9.999766">
<ele>5</ele>
<time>2026-04-20T09:53:12Z</time></trkpt>
<trkpt lat="53.576794" lon="9.999755">
<ele>5</ele>
<time>2026-04-20T09:53:46Z</time></trkpt>
<trkpt lat="53.576488" lon="9.99971">
<ele>5</ele>
<time>2026-04-20T09:54:17Z</time></trkpt>
<trkpt lat="53.575993" lon="9.999519">
<ele>5</ele>
<time>2026-04-20T09:55:08Z</time></trkpt>
<trkpt lat="53.575687" lon="9.999498">
<ele>5</ele>
<time>2026-04-20T09:55:38Z</time></trkpt>
<trkpt lat="53.574257" lon="9.999291">
<ele>5</ele>
<time>2026-04-20T09:58:05Z</time></trkpt>
<trkpt lat="53.573713" lon="9.999309">
<ele>5</ele>
<time>2026-04-20T09:59:01Z</time></trkpt>
<trkpt lat="53.573285" lon="9.999395">
<ele>5</ele>
<time>2026-04-20T09:59:44Z</time></trkpt>
<trkpt lat="53.568233" lon="10.00094">
<ele>6</ele>
<time>2026-04-20T10:08:18Z</time></trkpt>
<trkpt lat="53.567322" lon="10.001212">
<ele>5</ele>
<time>2026-04-20T10:09:50Z</time></trkpt>
<trkpt lat="53.567325" lon="10.001211">
<ele>5</ele>
<time>2026-04-20T10:09:50Z</time></trkpt>
<trkpt lat="53.567302" lon="10.001008">
<ele>5</ele>
<time>2026-04-20T10:10:03Z</time></trkpt>
<trkpt lat="53.566976" lon="9.997704">
<ele>7</ele>
<time>2026-04-20T10:13:40Z</time></trkpt>
<trkpt lat="53.56678" lon="9.995921">
<ele>7</ele>
<time>2026-04-20T10:15:28Z</time></trkpt>
<trkpt lat="53.56662" lon="9.995857">
<ele>7</ele>
<time>2026-04-20T10:15:45Z</time></trkpt>
<trkpt lat="53.566501" lon="9.995772">
<ele>7</ele>
<time>2026-04-20T10:15:58Z</time></trkpt>
<trkpt lat="53.564882" lon="9.994546">
<ele>6</ele>
<time>2026-04-20T10:18:53Z</time></trkpt>
<trkpt lat="53.564629" lon="9.994453">
<ele>6</ele>
<time>2026-04-20T10:19:21Z</time></trkpt>
<trkpt lat="53.563256" lon="9.994386">
<ele>8</ele>
<time>2026-04-20T10:21:50Z</time></trkpt>
<trkpt lat="53.563037" lon="9.994311">
<ele>8</ele>
<time>2026-04-20T10:22:14Z</time></trkpt>
<trkpt lat="53.562821" lon="9.994114">
<ele>8</ele>
<time>2026-04-20T10:22:41Z</time></trkpt>
<trkpt lat="53.562448" lon="9.993612">
<ele>9</ele>
<time>2026-04-20T10:23:32Z</time></trkpt>
<trkpt lat="53.561351" lon="9.991958">
<ele>9</ele>
<time>2026-04-20T10:25:59Z</time></trkpt>
<trkpt lat="53.560973" lon="9.991425">
<ele>9</ele>
<time>2026-04-20T10:26:48Z</time></trkpt>
<trkpt lat="53.56093" lon="9.99136">
<ele>9</ele>
<time>2026-04-20T10:26:54Z</time></trkpt>
<trkpt lat="53.560702" lon="9.99109">
<ele>9</ele>
<time>2026-04-20T10:27:22Z</time></trkpt>
<trkpt lat="53.560542" lon="9.990861">
<ele>9</ele>
<time>2026-04-20T10:27:43Z</time></trkpt>
<trkpt lat="53.560328" lon="9.990539">
<ele>8</ele>
<time>2026-04-20T10:28:12Z</time></trkpt>
<trkpt lat="53.559405" lon="9.989925">
<ele>8</ele>
<time>2026-04-20T10:29:49Z</time></trkpt>
<trkpt lat="53.558568" lon="9.989442">
<ele>8</ele>
<time>2026-04-20T10:31:17Z</time></trkpt>
<trkpt lat="53.5584923" lon="9.9894018">
<ele>8</ele>
<time>2026-04-20T10:31:25Z</time></trkpt>
<trkpt lat="53.5583101" lon="9.9893081">
<ele>8</ele>
<time>2026-04-20T10:31:44Z</time></trkpt>
<trkpt lat="53.5583095" lon="9.9886725">
<ele>8</ele>
<time>2026-04-20T10:32:22Z</time></trkpt>
<trkpt lat="53.558259" lon="9.987935">
<ele>8</ele>
<time>2026-04-20T10:33:12Z</time></trkpt>
<trkpt lat="53.55806" lon="9.985291">
<ele>12</ele>
<time>2026-04-20T10:36:15Z</time></trkpt>
<trkpt lat="53.558005" lon="9.984816">
<ele>13</ele>
<time>2026-04-20T10:36:46Z</time></trkpt>
<trkpt lat="53.557839" lon="9.984044">
<ele>13</ele>
<time>2026-04-20T10:37:39Z</time></trkpt>
<trkpt lat="53.557595" lon="9.983226">
<ele>14</ele>
<time>2026-04-20T10:38:38Z</time></trkpt>
<trkpt lat="53.5573" lon="9.982366">
<ele>16</ele>
<time>2026-04-20T10:39:47Z</time></trkpt>
<trkpt lat="53.557047" lon="9.981791">
<ele>16</ele>
<time>2026-04-20T10:40:36Z</time></trkpt>
<trkpt lat="53.556773" lon="9.98126">
<ele>17</ele>
<time>2026-04-20T10:41:21Z</time></trkpt>
<trkpt lat="53.556055" lon="9.979974">
<ele>18</ele>
<time>2026-04-20T10:43:15Z</time></trkpt>
<trkpt lat="53.555989" lon="9.979577">
<ele>18</ele>
<time>2026-04-20T10:43:39Z</time></trkpt>
<trkpt lat="53.555987" lon="9.979377">
<ele>18</ele>
<time>2026-04-20T10:43:50Z</time></trkpt>
<trkpt lat="53.556207" lon="9.979028">
<ele>16</ele>
<time>2026-04-20T10:44:18Z</time></trkpt>
<trkpt lat="53.556651" lon="9.978198">
<ele>19</ele>
<time>2026-04-20T10:45:41Z</time></trkpt>
<trkpt lat="53.55683" lon="9.977863">
<ele>20</ele>
<time>2026-04-20T10:46:17Z</time></trkpt>
<trkpt lat="53.557054" lon="9.977382">
<ele>20</ele>
<time>2026-04-20T10:46:54Z</time></trkpt>
<trkpt lat="53.557546" lon="9.976825">
<ele>19</ele>
<time>2026-04-20T10:47:52Z</time></trkpt>
<trkpt lat="53.557549" lon="9.976829">
<ele>19</ele>
<time>2026-04-20T10:47:52Z</time></trkpt>
<trkpt lat="53.5577063" lon="9.976632">
<ele>19</ele>
<time>2026-04-20T10:48:11Z</time></trkpt>
<trkpt lat="53.5584391" lon="9.9757737">
<ele>18</ele>
<time>2026-04-20T10:49:38Z</time></trkpt>
<trkpt lat="53.558436" lon="9.975765">
<ele>18</ele>
<time>2026-04-20T10:49:38Z</time></trkpt>
<trkpt lat="53.558538" lon="9.975652">
<ele>18</ele>
<time>2026-04-20T10:49:50Z</time></trkpt>
<trkpt lat="53.558743" lon="9.975519">
<ele>18</ele>
<time>2026-04-20T10:50:11Z</time></trkpt>
<trkpt lat="53.558932" lon="9.975482">
<ele>17</ele>
<time>2026-04-20T10:50:30Z</time></trkpt>
<trkpt lat="53.560446" lon="9.975475">
<ele>16</ele>
<time>2026-04-20T10:52:59Z</time></trkpt>
</trkseg>
</trk>
</gpx>